createdAt,value
2022-12-03T00:00:29.677Z,17.23
2022-12-03T00:01:01.911Z,17.05
2022-12-03T00:01:33.735Z,17.85
2022-12-03T00:02:05.650Z,17.20
2022-12-03T00:02:37.674Z,17.87
2022-12-03T00:03:10.000Z,18.30
2022-12-03T00:03:42.265Z,17.73
2022-12-03T00:04:14.322Z,18.10
2022-12-03T00:04:46.192Z,17.17
2022-12-03T00:05:18.094Z,17.73
2022-12-03T00:05:49.963Z,17.85
2022-12-03T00:06:22.211Z,16.92
2022-12-03T00:06:54.091Z,17.75
2022-12-03T00:07:26.009Z,18.00
2022-12-03T00:07:58.050Z,17.37
2022-12-03T00:08:29.988Z,19.05
2022-12-03T00:09:01.914Z,17.67
2022-12-03T00:09:33.785Z,18.55
2022-12-03T00:10:06.791Z,17.58
2022-12-03T00:10:38.655Z,17.52
2022-12-03T00:11:10.527Z,17.45
2022-12-03T00:11:42.679Z,17.40
2022-12-03T00:12:14.556Z,17.62
2022-12-03T00:12:46.506Z,17.15
2022-12-03T00:13:18.373Z,17.33
2022-12-03T00:13:50.232Z,16.62
2022-12-03T00:14:22.153Z,17.12
2022-12-03T00:14:54.823Z,16.62
2022-12-03T00:15:26.987Z,17.55
2022-12-03T00:15:58.897Z,17.23
2022-12-03T00:16:30.920Z,17.25
2022-12-03T00:17:03.145Z,16.65
2022-12-03T00:17:35.059Z,17.20
2022-12-03T00:18:06.923Z,17.95
2022-12-03T00:18:38.781Z,16.48
2022-12-03T00:19:10.659Z,16.55
2022-12-03T00:19:42.496Z,16.70
2022-12-03T00:20:23.246Z,16.67
2022-12-03T00:21:26.935Z,15.45
2022-12-03T00:21:58.804Z,15.90
2022-12-03T00:22:31.014Z,16.45
2022-12-03T00:23:02.860Z,16.20
2022-12-03T00:23:38.603Z,16.55
2022-12-03T00:24:13.767Z,16.23
2022-12-03T00:24:45.757Z,16.50
2022-12-03T00:25:17.821Z,15.75
2022-12-03T00:25:49.689Z,16.08
2022-12-03T00:26:21.569Z,16.58
2022-12-03T00:26:53.607Z,16.27
2022-12-03T00:27:25.462Z,17.15
2022-12-03T00:27:57.606Z,16.30
2022-12-03T00:28:29.487Z,16.58
2022-12-03T00:29:01.358Z,16.37
2022-12-03T00:29:33.265Z,16.98
2022-12-03T00:30:06.583Z,17.60
2022-12-03T00:30:38.479Z,18.00
2022-12-03T00:31:10.371Z,16.87
2022-12-03T00:31:43.284Z,16.90
2022-12-03T00:32:15.185Z,16.27
2022-12-03T00:32:47.043Z,17.05
2022-12-03T00:33:19.204Z,18.12
2022-12-03T00:33:51.733Z,16.60
2022-12-03T00:34:23.630Z,17.08
2022-12-03T00:34:55.710Z,15.40
2022-12-03T00:35:27.715Z,17.02
2022-12-03T00:35:59.619Z,15.48
2022-12-03T00:36:31.581Z,16.25
2022-12-03T00:37:03.526Z,15.82
2022-12-03T00:37:35.417Z,17.15
2022-12-03T00:38:07.301Z,17.10
2022-12-03T00:38:39.561Z,16.85
2022-12-03T00:39:11.419Z,17.40
2022-12-03T00:39:43.306Z,17.20
2022-12-03T00:40:15.436Z,17.20
2022-12-03T00:40:47.302Z,17.30
2022-12-03T00:41:19.164Z,15.35
2022-12-03T00:41:51.057Z,16.25
2022-12-03T00:42:22.898Z,16.23
2022-12-03T00:42:54.736Z,17.58
2022-12-03T00:43:26.635Z,16.40
2022-12-03T00:43:58.791Z,16.83
2022-12-03T00:44:30.661Z,17.75
2022-12-03T00:45:02.601Z,16.85
2022-12-03T00:45:34.464Z,17.25
2022-12-03T00:46:06.561Z,16.70
2022-12-03T00:46:38.531Z,16.40
2022-12-03T00:47:11.384Z,17.50
2022-12-03T00:47:43.313Z,17.62
2022-12-03T00:48:15.188Z,17.30
2022-12-03T00:48:47.229Z,16.95
2022-12-03T00:49:19.383Z,18.10
2022-12-03T00:49:51.377Z,15.93
2022-12-03T00:50:23.260Z,18.75
2022-12-03T00:50:55.133Z,16.67
2022-12-03T00:51:27.004Z,18.10
2022-12-03T00:51:58.859Z,17.42
2022-12-03T00:52:30.686Z,18.08
2022-12-03T00:53:02.632Z,17.90
2022-12-03T00:53:35.745Z,17.05
2022-12-03T00:54:07.611Z,16.12
2022-12-03T00:54:39.755Z,16.95
2022-12-03T00:55:11.852Z,17.55
2022-12-03T00:55:43.717Z,17.60
2022-12-03T00:56:15.612Z,17.92
2022-12-03T00:56:47.459Z,17.77
2022-12-03T00:57:19.300Z,17.23
2022-12-03T00:57:51.197Z,18.00
2022-12-03T00:58:23.087Z,18.45
2022-12-03T00:58:54.895Z,18.45
2022-12-03T00:59:26.776Z,16.87
2022-12-03T00:59:58.944Z,17.55
2022-12-03T01:00:30.762Z,17.15
2022-12-03T01:01:02.874Z,16.48
2022-12-03T01:01:34.914Z,17.10
2022-12-03T01:02:07.081Z,16.77
2022-12-03T01:02:38.987Z,16.55
2022-12-03T01:03:10.842Z,17.98
2022-12-03T01:03:42.725Z,17.15
2022-12-03T01:04:14.592Z,16.80
2022-12-03T01:04:46.591Z,17.45
2022-12-03T01:05:19.618Z,18.23
2022-12-03T01:05:51.544Z,18.20
2022-12-03T01:06:23.487Z,17.42
2022-12-03T01:06:55.995Z,17.92
2022-12-03T01:07:28.042Z,18.17
2022-12-03T01:08:00.014Z,18.02
2022-12-03T01:08:31.934Z,18.23
2022-12-03T01:09:03.904Z,18.42
2022-12-03T01:09:35.820Z,17.17
2022-12-03T01:10:08.062Z,17.85
2022-12-03T01:10:40.277Z,18.23
2022-12-03T01:11:30.934Z,18.15
2022-12-03T01:12:02.821Z,16.90
2022-12-03T01:12:34.736Z,16.85
2022-12-03T01:13:06.633Z,17.30
2022-12-03T01:13:38.478Z,17.50
2022-12-03T01:14:15.499Z,18.40
2022-12-03T01:14:47.567Z,17.45
2022-12-03T01:15:19.715Z,17.80
2022-12-03T01:15:52.028Z,17.12
2022-12-03T01:16:24.093Z,17.90
2022-12-03T01:16:56.103Z,17.48
2022-12-03T01:17:28.032Z,17.02
2022-12-03T01:17:59.893Z,17.12
2022-12-03T01:18:31.742Z,18.05
2022-12-03T01:19:04.981Z,18.12
2022-12-03T01:19:36.981Z,17.80
2022-12-03T01:20:09.960Z,18.02
2022-12-03T01:20:41.846Z,17.92
2022-12-03T01:21:14.050Z,18.83
2022-12-03T01:21:48.912Z,17.85
2022-12-03T01:22:20.922Z,17.87
2022-12-03T01:22:52.838Z,18.15
2022-12-03T01:23:24.720Z,18.30
2022-12-03T01:23:57.073Z,18.25
2022-12-03T01:24:29.010Z,18.17
2022-12-03T01:25:00.928Z,18.30
2022-12-03T01:25:32.939Z,17.83
2022-12-03T01:26:04.907Z,18.27
2022-12-03T01:26:37.546Z,19.05
2022-12-03T01:27:09.383Z,17.62
2022-12-03T01:27:41.211Z,16.75
2022-12-03T01:28:13.099Z,17.60
2022-12-03T01:28:44.977Z,17.33
2022-12-03T01:29:16.817Z,17.40
2022-12-03T01:29:48.676Z,18.62
2022-12-03T01:30:20.599Z,18.30
2022-12-03T01:31:11.070Z,17.67
2022-12-03T01:32:02.026Z,18.85
2022-12-03T01:32:33.940Z,17.87
2022-12-03T01:33:05.782Z,19.00
2022-12-03T01:33:37.614Z,17.67
2022-12-03T01:34:09.466Z,19.35
2022-12-03T01:34:41.337Z,19.33
2022-12-03T01:35:13.191Z,18.08
2022-12-03T01:35:45.010Z,18.80
2022-12-03T01:36:16.890Z,17.30
2022-12-03T01:36:49.202Z,17.10
2022-12-03T01:37:23.965Z,18.27
2022-12-03T01:37:55.812Z,17.33
2022-12-03T01:38:27.653Z,18.37
2022-12-03T01:38:59.625Z,18.50
2022-12-03T01:39:31.508Z,18.42
2022-12-03T01:40:04.961Z,17.25
2022-12-03T01:40:36.874Z,18.65
2022-12-03T01:41:11.923Z,18.45
2022-12-03T01:41:44.662Z,17.27
2022-12-03T01:42:39.722Z,19.10
2022-12-03T01:43:11.575Z,17.60
2022-12-03T01:43:43.688Z,19.02
2022-12-03T01:44:23.121Z,18.10
2022-12-03T01:44:58.567Z,17.65
2022-12-03T01:45:30.984Z,17.08
2022-12-03T01:46:03.625Z,18.42
2022-12-03T01:46:40.163Z,19.77
2022-12-03T01:47:18.146Z,18.33
2022-12-03T01:47:50.810Z,20.75
2022-12-03T01:48:22.670Z,17.90
2022-12-03T01:48:56.067Z,19.37
2022-12-03T01:49:43.273Z,16.90
2022-12-03T01:50:20.869Z,18.73
2022-12-03T01:50:52.746Z,17.45
2022-12-03T01:51:24.702Z,19.30
2022-12-03T01:51:57.899Z,20.02
2022-12-03T01:52:34.509Z,18.87
2022-12-03T01:53:06.715Z,17.45
2022-12-03T01:53:38.601Z,17.85
2022-12-03T01:54:18.306Z,19.37
2022-12-03T01:54:59.241Z,18.20
2022-12-03T01:55:32.331Z,18.42
2022-12-03T01:56:04.360Z,19.98
2022-12-03T01:56:36.203Z,18.42
2022-12-03T01:57:20.133Z,19.40
2022-12-03T01:57:55.725Z,18.83
2022-12-03T01:58:29.638Z,18.23
2022-12-03T01:59:01.508Z,17.15
2022-12-03T01:59:36.337Z,18.27
2022-12-03T02:00:17.165Z,18.98
2022-12-03T02:00:49.356Z,17.92
2022-12-03T02:01:21.283Z,17.83
2022-12-03T02:01:53.230Z,17.58
2022-12-03T02:02:28.438Z,18.67
2022-12-03T02:03:11.453Z,19.05
2022-12-03T02:03:45.521Z,18.80
2022-12-03T02:04:22.552Z,17.00
2022-12-03T02:04:55.197Z,18.10
2022-12-03T02:05:30.243Z,20.62
2022-12-03T02:06:02.224Z,19.25
2022-12-03T02:06:34.521Z,19.27
2022-12-03T02:07:19.819Z,18.42
2022-12-03T02:07:52.568Z,18.12
2022-12-03T02:08:34.626Z,19.30
2022-12-03T02:09:08.699Z,19.33
2022-12-03T02:09:40.562Z,20.08
2022-12-03T02:10:15.871Z,19.33
2022-12-03T02:10:47.780Z,18.62
2022-12-03T02:11:25.588Z,18.12
2022-12-03T02:11:57.468Z,18.17
2022-12-03T02:12:36.379Z,19.60
2022-12-03T02:13:09.760Z,17.52
2022-12-03T02:13:42.930Z,19.35
2022-12-03T02:14:21.661Z,19.20
2022-12-03T02:14:54.486Z,19.08
2022-12-03T02:15:26.641Z,18.98
2022-12-03T02:15:58.787Z,19.87
2022-12-03T02:16:31.209Z,18.67
2022-12-03T02:17:03.120Z,19.23
2022-12-03T02:17:35.414Z,19.98
2022-12-03T02:18:08.954Z,19.05
2022-12-03T02:18:40.981Z,19.33
2022-12-03T02:19:27.529Z,18.40
2022-12-03T02:20:01.749Z,19.30
2022-12-03T02:20:41.228Z,18.95
2022-12-03T02:21:15.628Z,17.48
2022-12-03T02:22:09.381Z,20.30
2022-12-03T02:23:16.042Z,18.62
2022-12-03T02:24:33.359Z,17.58
2022-12-03T02:25:11.171Z,18.25
2022-12-03T02:25:43.036Z,18.48
2022-12-03T02:26:14.944Z,19.40
2022-12-03T02:26:46.811Z,18.92
2022-12-03T02:27:18.665Z,18.00
2022-12-03T02:27:51.404Z,17.95
2022-12-03T02:28:23.279Z,17.87
2022-12-03T02:28:55.338Z,19.27
2022-12-03T02:29:27.386Z,19.12
2022-12-03T02:29:59.288Z,18.67
2022-12-03T02:30:32.209Z,19.75
2022-12-03T02:31:05.388Z,21.10
2022-12-03T02:31:37.685Z,19.65
2022-12-03T02:32:09.563Z,19.45
2022-12-03T02:32:41.664Z,20.20
2022-12-03T02:33:14.095Z,19.73
2022-12-03T02:33:45.951Z,19.80
2022-12-03T02:34:38.235Z,19.85
2022-12-03T02:35:18.665Z,18.70
2022-12-03T02:36:22.925Z,18.15
2022-12-03T02:36:54.756Z,18.85
2022-12-03T02:37:32.373Z,19.85
2022-12-03T02:38:21.498Z,20.45
2022-12-03T02:38:53.573Z,18.45
2022-12-03T02:39:25.724Z,19.10
2022-12-03T02:40:01.800Z,19.17
2022-12-03T02:40:34.353Z,19.23
2022-12-03T02:41:10.924Z,18.73
2022-12-03T02:42:01.384Z,18.65
2022-12-03T02:42:36.310Z,18.80
2022-12-03T02:43:08.193Z,19.12
2022-12-03T02:43:40.069Z,19.10
2022-12-03T02:44:12.594Z,18.45
2022-12-03T02:44:44.498Z,19.95
2022-12-03T02:45:24.077Z,19.65
2022-12-03T02:45:59.974Z,20.25
2022-12-03T02:46:32.919Z,19.00
2022-12-03T02:47:05.013Z,19.45
2022-12-03T02:47:43.364Z,18.80
2022-12-03T02:48:19.225Z,17.77
2022-12-03T02:48:51.196Z,18.45
2022-12-03T02:49:23.049Z,19.08
2022-12-03T02:49:55.905Z,18.75
2022-12-03T02:50:34.978Z,19.58
2022-12-03T02:51:10.370Z,18.67
2022-12-03T02:51:42.516Z,18.80
2022-12-03T02:52:15.956Z,20.45
2022-12-03T02:52:48.818Z,18.33
2022-12-03T02:53:26.510Z,18.77
2022-12-03T02:53:59.494Z,19.15
2022-12-03T02:54:31.534Z,18.65
2022-12-03T02:55:06.387Z,18.95
2022-12-03T02:55:39.134Z,18.83
2022-12-03T02:56:16.401Z,19.67
2022-12-03T02:56:48.839Z,19.15
2022-12-03T02:57:21.186Z,19.48
2022-12-03T02:57:53.235Z,19.40
2022-12-03T02:58:26.471Z,19.10
2022-12-03T02:59:01.858Z,19.05
2022-12-03T02:59:34.267Z,20.02
2022-12-03T03:00:08.440Z,18.40
2022-12-03T03:00:40.752Z,19.37
2022-12-03T03:01:13.170Z,19.40
2022-12-03T03:01:45.167Z,20.15
2022-12-03T03:02:17.789Z,19.67
2022-12-03T03:02:50.958Z,20.10
2022-12-03T03:03:27.061Z,19.85
2022-12-03T03:03:59.318Z,19.50
2022-12-03T03:04:31.271Z,19.30
2022-12-03T03:05:05.490Z,19.55
2022-12-03T03:05:39.815Z,19.65
2022-12-03T03:06:12.196Z,19.87
2022-12-03T03:06:44.305Z,19.42
2022-12-03T03:07:16.764Z,18.92
2022-12-03T03:07:51.043Z,19.35
2022-12-03T03:08:24.616Z,18.25
2022-12-03T03:08:57.260Z,18.55
2022-12-03T03:09:29.175Z,19.83
2022-12-03T03:10:02.175Z,18.92
2022-12-03T03:10:36.990Z,18.98
2022-12-03T03:11:08.865Z,18.37
2022-12-03T03:11:40.818Z,20.08
2022-12-03T03:12:12.680Z,18.87
2022-12-03T03:12:44.575Z,19.10
2022-12-03T03:13:19.033Z,21.70
2022-12-03T03:13:50.944Z,19.75
2022-12-03T03:14:22.810Z,19.83
2022-12-03T03:14:55.113Z,20.25
2022-12-03T03:15:27.157Z,19.12
2022-12-03T03:15:59.488Z,19.42
2022-12-03T03:16:33.850Z,19.50
2022-12-03T03:17:06.497Z,19.67
2022-12-03T03:17:38.742Z,19.12
2022-12-03T03:18:12.414Z,19.58
2022-12-03T03:18:44.709Z,19.62
2022-12-03T03:19:17.145Z,19.30
2022-12-03T03:19:49.066Z,19.23
2022-12-03T03:20:21.002Z,18.25
2022-12-03T03:20:53.695Z,19.60
2022-12-03T03:21:25.661Z,19.65
2022-12-03T03:21:57.572Z,18.80
2022-12-03T03:22:38.637Z,19.85
2022-12-03T03:23:17.815Z,18.98
2022-12-03T03:23:50.037Z,18.67
2022-12-03T03:24:22.825Z,18.87
2022-12-03T03:24:55.038Z,19.77
2022-12-03T03:25:27.143Z,19.73
2022-12-03T03:26:01.576Z,19.27
2022-12-03T03:26:33.517Z,19.42
2022-12-03T03:27:05.990Z,19.40
2022-12-03T03:27:39.006Z,19.52
2022-12-03T03:28:11.923Z,18.33
2022-12-03T03:28:48.573Z,18.55
2022-12-03T03:29:20.973Z,18.12
2022-12-03T03:29:52.921Z,18.55
2022-12-03T03:30:24.864Z,18.98
2022-12-03T03:30:58.916Z,18.73
2022-12-03T03:31:30.875Z,19.02
2022-12-03T03:32:04.395Z,18.23
2022-12-03T03:32:37.291Z,19.23
2022-12-03T03:33:10.076Z,19.48
2022-12-03T03:33:45.007Z,20.17
2022-12-03T03:34:17.594Z,20.00
2022-12-03T03:34:50.281Z,20.42
2022-12-03T03:35:24.544Z,18.30
2022-12-03T03:35:57.257Z,19.77
2022-12-03T03:36:29.155Z,19.48
2022-12-03T03:37:01.091Z,19.02
2022-12-03T03:37:33.060Z,18.17
2022-12-03T03:38:05.881Z,19.80
2022-12-03T03:38:38.459Z,19.55
2022-12-03T03:39:11.031Z,18.73
2022-12-03T03:39:43.022Z,20.00
2022-12-03T03:40:15.302Z,19.52
2022-12-03T03:40:49.431Z,18.90
2022-12-03T03:41:21.830Z,19.55
2022-12-03T03:41:53.774Z,20.27
2022-12-03T03:42:25.687Z,20.05
2022-12-03T03:42:58.234Z,19.27
2022-12-03T03:43:33.316Z,18.77
2022-12-03T03:44:07.618Z,20.08
2022-12-03T03:44:39.707Z,18.40
2022-12-03T03:45:11.625Z,20.27
2022-12-03T03:45:44.563Z,19.92
2022-12-03T03:46:18.277Z,19.62
2022-12-03T03:46:50.372Z,19.50
2022-12-03T03:47:23.845Z,18.65
2022-12-03T03:47:57.509Z,18.60
2022-12-03T03:48:29.713Z,19.52
2022-12-03T03:49:03.552Z,20.42
2022-12-03T03:49:35.737Z,19.92
2022-12-03T03:50:10.260Z,20.10
2022-12-03T03:50:44.546Z,20.33
2022-12-03T03:51:18.836Z,19.05
2022-12-03T03:51:50.974Z,19.65
2022-12-03T03:52:23.255Z,19.37
2022-12-03T03:52:56.749Z,19.60
2022-12-03T03:53:29.109Z,19.20
2022-12-03T03:54:03.772Z,19.33
2022-12-03T03:54:36.475Z,19.42
2022-12-03T03:55:10.417Z,19.98
2022-12-03T03:55:42.858Z,18.55
2022-12-03T03:56:17.525Z,19.67
2022-12-03T03:56:49.822Z,18.67
2022-12-03T03:57:21.780Z,19.98
2022-12-03T03:57:53.689Z,20.35
2022-12-03T03:58:25.588Z,18.92
2022-12-03T03:58:57.965Z,20.48
2022-12-03T03:59:29.955Z,20.37
2022-12-03T04:00:02.055Z,19.52
2022-12-03T04:00:37.913Z,19.62
2022-12-03T04:01:12.602Z,20.02
2022-12-03T04:01:46.080Z,19.08
2022-12-03T04:02:21.405Z,20.85
2022-12-03T04:02:54.408Z,20.85
2022-12-03T04:03:27.391Z,19.73
2022-12-03T04:04:02.404Z,19.60
2022-12-03T04:04:36.599Z,18.67
2022-12-03T04:05:15.265Z,18.25
2022-12-03T04:05:47.662Z,19.23
2022-12-03T04:06:19.965Z,20.75
2022-12-03T04:06:51.787Z,21.27
2022-12-03T04:07:23.630Z,19.67
2022-12-03T04:07:55.681Z,18.58
2022-12-03T04:08:27.571Z,19.45
2022-12-03T04:08:59.531Z,20.62
2022-12-03T04:09:31.351Z,20.00
2022-12-03T04:10:23.323Z,19.37
2022-12-03T04:11:13.637Z,18.67
2022-12-03T04:12:04.533Z,19.50
2022-12-03T04:13:05.724Z,19.05
2022-12-03T04:13:37.628Z,18.98
2022-12-03T04:14:09.524Z,18.33
2022-12-03T04:14:41.356Z,19.90
2022-12-03T04:15:13.194Z,20.08
2022-12-03T04:15:45.058Z,20.23
2022-12-03T04:16:16.919Z,19.23
2022-12-03T04:16:49.229Z,19.42
2022-12-03T04:17:21.299Z,20.02
2022-12-03T04:18:12.054Z,20.08
2022-12-03T04:18:44.904Z,19.85
2022-12-03T04:19:16.757Z,19.20
2022-12-03T04:19:48.684Z,19.95
2022-12-03T04:20:20.516Z,19.67
2022-12-03T04:21:12.332Z,19.60
2022-12-03T04:22:11.117Z,19.85
2022-12-03T04:22:43.342Z,18.17
2022-12-03T04:23:15.323Z,18.25
2022-12-03T04:23:47.226Z,20.05
2022-12-03T04:24:19.060Z,18.65
2022-12-03T04:24:51.303Z,19.33
2022-12-03T04:25:41.856Z,19.62
2022-12-03T04:26:32.279Z,19.35
2022-12-03T04:27:22.584Z,19.67
2022-12-03T04:28:13.160Z,18.95
2022-12-03T04:28:50.922Z,18.90
2022-12-03T04:29:23.183Z,18.92
2022-12-03T04:29:55.052Z,19.05
2022-12-03T04:30:27.295Z,19.80
2022-12-03T04:30:59.689Z,19.75
2022-12-03T04:31:54.533Z,20.15
2022-12-03T04:32:45.272Z,18.80
2022-12-03T04:33:36.258Z,19.27
2022-12-03T04:34:28.249Z,20.23
2022-12-03T04:35:18.863Z,16.98
2022-12-03T04:35:50.982Z,19.05
2022-12-03T04:36:22.839Z,18.83
2022-12-03T04:36:54.759Z,20.60
2022-12-03T04:37:26.604Z,19.52
2022-12-03T04:37:58.500Z,19.95
2022-12-03T04:38:30.753Z,18.85
2022-12-03T04:39:03.034Z,21.50
2022-12-03T04:39:35.518Z,20.50
2022-12-03T04:40:27.883Z,20.50
2022-12-03T04:41:04.406Z,19.67
2022-12-03T04:41:36.312Z,19.40
2022-12-03T04:42:08.364Z,20.02
2022-12-03T04:42:40.207Z,19.25
2022-12-03T04:43:13.082Z,20.37
2022-12-03T04:44:17.871Z,20.75
2022-12-03T04:44:50.383Z,19.10
2022-12-03T04:45:22.486Z,19.05
2022-12-03T04:45:54.440Z,19.10
2022-12-03T04:46:26.411Z,19.83
2022-12-03T04:46:58.362Z,19.67
2022-12-03T04:47:31.526Z,19.70
2022-12-03T04:48:04.321Z,19.40
2022-12-03T04:48:36.219Z,19.95
2022-12-03T04:49:08.575Z,21.00
2022-12-03T04:49:46.041Z,19.70
2022-12-03T04:50:17.934Z,19.85
2022-12-03T04:50:49.833Z,21.08
2022-12-03T04:51:21.702Z,20.58
2022-12-03T04:51:53.713Z,20.70
2022-12-03T04:52:26.512Z,20.65
2022-12-03T04:52:58.425Z,20.83
2022-12-03T04:53:30.277Z,20.02
2022-12-03T04:54:02.291Z,19.98
2022-12-03T04:54:34.878Z,22.10
2022-12-03T04:55:06.955Z,20.90
2022-12-03T04:55:38.781Z,20.08
2022-12-03T04:56:10.648Z,20.85
2022-12-03T04:56:42.580Z,20.33
2022-12-03T04:57:15.833Z,21.15
2022-12-03T04:57:47.658Z,20.98
2022-12-03T04:58:19.505Z,21.77
2022-12-03T04:58:51.445Z,21.55
2022-12-03T04:59:23.402Z,21.48
2022-12-03T04:59:55.590Z,22.62
2022-12-03T05:00:29.052Z,20.52
2022-12-03T05:01:00.993Z,21.45
2022-12-03T05:01:32.925Z,22.45
2022-12-03T05:02:06.337Z,21.65
2022-12-03T05:02:38.253Z,21.05
2022-12-03T05:03:10.169Z,22.23
2022-12-03T05:03:42.035Z,20.27
2022-12-03T05:04:14.660Z,22.52
2022-12-03T05:04:46.568Z,22.35
2022-12-03T05:05:18.726Z,21.08
2022-12-03T05:05:50.549Z,21.35
2022-12-03T05:06:22.681Z,21.50
2022-12-03T05:06:54.633Z,21.27
2022-12-03T05:07:26.578Z,22.15
2022-12-03T05:07:58.505Z,21.02
2022-12-03T05:08:30.382Z,20.75
2022-12-03T05:09:02.445Z,21.42
2022-12-03T05:09:34.464Z,22.40
2022-12-03T05:10:07.096Z,21.15
2022-12-03T05:10:39.344Z,20.83
2022-12-03T05:11:11.194Z,21.33
2022-12-03T05:11:43.580Z,21.08
2022-12-03T05:12:15.421Z,23.12
2022-12-03T05:12:47.314Z,21.98
2022-12-03T05:13:19.203Z,20.80
2022-12-03T05:13:52.477Z,21.33
2022-12-03T05:14:24.303Z,22.30
2022-12-03T05:14:56.449Z,21.20
2022-12-03T05:15:28.482Z,21.58
2022-12-03T05:16:00.745Z,21.65
2022-12-03T05:16:32.735Z,21.12
2022-12-03T05:17:04.794Z,22.23
2022-12-03T05:17:36.818Z,21.87
2022-12-03T05:18:09.977Z,20.50
2022-12-03T05:18:41.849Z,22.17
2022-12-03T05:19:13.687Z,22.25
2022-12-03T05:20:04.365Z,23.20
2022-12-03T05:20:42.121Z,21.35
2022-12-03T05:21:14.255Z,20.35
2022-12-03T05:21:46.164Z,19.85
2022-12-03T05:22:18.411Z,21.17
2022-12-03T05:22:50.276Z,20.60
2022-12-03T05:23:22.308Z,21.33
2022-12-03T05:23:54.337Z,22.27
2022-12-03T05:24:26.183Z,20.92
2022-12-03T05:24:58.039Z,21.08
2022-12-03T05:25:29.954Z,20.15
2022-12-03T05:26:01.852Z,20.12
2022-12-03T05:26:34.149Z,21.15
2022-12-03T05:27:06.270Z,21.27
2022-12-03T05:27:38.145Z,21.10
2022-12-03T05:28:10.081Z,21.15
2022-12-03T05:28:41.929Z,19.85
2022-12-03T05:29:13.764Z,19.90
2022-12-03T05:29:45.606Z,21.02
2022-12-03T05:30:17.578Z,20.33
2022-12-03T05:30:49.659Z,21.25
2022-12-03T05:31:21.639Z,19.60
2022-12-03T05:31:53.842Z,21.73
2022-12-03T05:32:25.705Z,21.25
2022-12-03T05:32:57.683Z,19.00
2022-12-03T05:33:29.612Z,19.67
2022-12-03T05:34:01.434Z,20.65
2022-12-03T05:34:33.303Z,22.08
2022-12-03T05:35:05.549Z,20.23
2022-12-03T05:35:37.432Z,19.83
2022-12-03T05:36:09.523Z,20.60
2022-12-03T05:36:41.461Z,20.10
2022-12-03T05:37:13.667Z,21.40
2022-12-03T05:37:45.635Z,19.70
2022-12-03T05:38:17.540Z,21.33
2022-12-03T05:38:49.480Z,19.58
2022-12-03T05:39:21.388Z,21.25
2022-12-03T05:39:53.246Z,21.12
2022-12-03T05:40:25.299Z,20.05
2022-12-03T05:40:57.127Z,21.52
2022-12-03T05:41:47.961Z,21.12
2022-12-03T05:42:38.905Z,19.77
2022-12-03T05:43:10.795Z,18.75
2022-12-03T05:43:42.684Z,19.73
2022-12-03T05:44:20.117Z,19.77
2022-12-03T05:44:52.778Z,19.37
2022-12-03T05:45:28.103Z,19.52
2022-12-03T05:46:00.012Z,21.60
2022-12-03T05:46:35.000Z,20.27
2022-12-03T05:47:06.946Z,20.35
2022-12-03T05:47:41.746Z,21.92
2022-12-03T05:48:15.624Z,20.30
2022-12-03T05:48:47.476Z,21.10
2022-12-03T05:49:19.334Z,20.98
2022-12-03T05:49:51.178Z,20.23
2022-12-03T05:50:26.020Z,21.80
2022-12-03T05:51:00.119Z,19.67
2022-12-03T05:51:31.921Z,20.02
2022-12-03T05:52:04.017Z,20.73
2022-12-03T05:52:35.872Z,20.25
2022-12-03T05:53:08.078Z,20.50
2022-12-03T05:53:40.020Z,21.10
2022-12-03T05:54:11.957Z,21.33
2022-12-03T05:54:43.846Z,20.20
2022-12-03T05:55:16.615Z,20.52
2022-12-03T05:55:48.444Z,21.15
2022-12-03T05:56:20.280Z,21.45
2022-12-03T05:56:52.161Z,21.83
2022-12-03T05:57:24.106Z,19.92
2022-12-03T05:57:56.016Z,22.30
2022-12-03T05:58:28.574Z,21.02
2022-12-03T05:59:01.699Z,20.30
2022-12-03T05:59:33.524Z,20.70
2022-12-03T06:00:11.282Z,22.02
2022-12-03T06:00:44.454Z,20.02
2022-12-03T06:01:16.901Z,22.65
2022-12-03T06:01:48.926Z,22.45
2022-12-03T06:02:22.273Z,21.00
2022-12-03T06:02:55.084Z,21.62
2022-12-03T06:03:27.238Z,20.83
2022-12-03T06:04:00.277Z,22.25
2022-12-03T06:04:32.254Z,21.60
2022-12-03T06:05:04.386Z,22.15
2022-12-03T06:05:36.291Z,21.37
2022-12-03T06:06:08.191Z,20.62
2022-12-03T06:06:40.364Z,22.48
2022-12-03T06:07:14.076Z,20.30
2022-12-03T06:07:47.160Z,20.65
2022-12-03T06:08:19.075Z,21.55
2022-12-03T06:08:50.977Z,21.05
2022-12-03T06:09:22.811Z,21.02
2022-12-03T06:09:54.729Z,20.80
2022-12-03T06:10:27.310Z,22.17
2022-12-03T06:10:59.567Z,21.27
2022-12-03T06:11:34.101Z,22.23
2022-12-03T06:12:07.027Z,22.15
2022-12-03T06:12:38.928Z,20.92
2022-12-03T06:13:11.690Z,21.50
2022-12-03T06:13:43.560Z,20.15
2022-12-03T06:14:15.596Z,20.83
2022-12-03T06:14:47.463Z,21.40
2022-12-03T06:15:20.313Z,21.33
2022-12-03T06:15:52.199Z,20.85
2022-12-03T06:16:24.213Z,21.65
2022-12-03T06:16:56.172Z,21.60
2022-12-03T06:17:28.515Z,22.40
2022-12-03T06:18:00.454Z,21.85
2022-12-03T06:18:32.325Z,22.27
2022-12-03T06:19:04.192Z,21.55
2022-12-03T06:19:36.048Z,22.50
2022-12-03T06:20:09.081Z,21.87
2022-12-03T06:20:41.068Z,21.77
2022-12-03T06:21:13.137Z,23.12
2022-12-03T06:21:46.711Z,23.30
2022-12-03T06:22:19.191Z,22.50
2022-12-03T06:22:51.318Z,21.55
2022-12-03T06:23:23.259Z,22.37
2022-12-03T06:23:55.123Z,21.20
2022-12-03T06:24:26.984Z,20.88
2022-12-03T06:25:04.900Z,22.27
2022-12-03T06:25:38.650Z,20.55
2022-12-03T06:26:11.719Z,22.35
2022-12-03T06:26:43.590Z,19.37
2022-12-03T06:27:15.500Z,21.02
2022-12-03T06:27:47.325Z,21.52
2022-12-03T06:28:19.468Z,21.52
2022-12-03T06:28:51.336Z,22.30
2022-12-03T06:29:23.174Z,22.58
2022-12-03T06:29:55.023Z,23.25
2022-12-03T06:30:26.987Z,20.27
2022-12-03T06:30:58.952Z,22.48
2022-12-03T06:31:30.921Z,22.52
2022-12-03T06:32:03.887Z,22.35
2022-12-03T06:32:35.900Z,22.67
2022-12-03T06:33:07.753Z,22.30
2022-12-03T06:33:39.953Z,21.50
2022-12-03T06:34:11.777Z,22.58
2022-12-03T06:34:45.713Z,21.85
2022-12-03T06:35:17.630Z,20.95
2022-12-03T06:35:49.451Z,21.02
2022-12-03T06:36:23.285Z,22.73
2022-12-03T06:36:55.401Z,22.42
2022-12-03T06:37:27.786Z,20.70
2022-12-03T06:37:59.707Z,20.92
2022-12-03T06:38:31.595Z,22.90
2022-12-03T06:39:03.827Z,21.52
2022-12-03T06:39:36.402Z,20.37
2022-12-03T06:40:08.751Z,21.20
2022-12-03T06:40:40.595Z,22.15
2022-12-03T06:41:12.608Z,22.52
2022-12-03T06:41:44.510Z,24.10
2022-12-03T06:42:16.397Z,22.55
2022-12-03T06:42:48.211Z,20.65
2022-12-03T06:43:20.050Z,21.37
2022-12-03T06:43:51.913Z,22.58
2022-12-03T06:44:24.078Z,22.70
2022-12-03T06:44:56.151Z,22.20
2022-12-03T06:45:28.159Z,21.80
2022-12-03T06:46:00.073Z,22.45
2022-12-03T06:46:32.105Z,21.95
2022-12-03T06:47:04.138Z,22.62
2022-12-03T06:47:36.066Z,21.58
2022-12-03T06:48:08.363Z,22.30
2022-12-03T06:48:40.173Z,22.23
2022-12-03T06:49:12.006Z,22.45
2022-12-03T06:49:44.221Z,22.02
2022-12-03T06:50:16.313Z,20.37
2022-12-03T06:50:48.235Z,20.55
2022-12-03T06:51:20.074Z,21.30
2022-12-03T06:51:51.889Z,21.98
2022-12-03T06:52:24.095Z,22.40
2022-12-03T06:52:57.243Z,23.05
2022-12-03T06:53:31.016Z,21.90
2022-12-03T06:54:03.920Z,22.37
2022-12-03T06:54:35.790Z,21.73
2022-12-03T06:55:08.415Z,21.35
2022-12-03T06:55:40.254Z,21.33
2022-12-03T06:56:12.192Z,21.15
2022-12-03T06:56:45.583Z,21.42
2022-12-03T06:57:17.668Z,22.42
2022-12-03T06:57:49.864Z,20.98
2022-12-03T06:58:21.764Z,21.95
2022-12-03T06:58:53.909Z,21.75
2022-12-03T06:59:26.340Z,22.30
2022-12-03T06:59:58.437Z,21.62
2022-12-03T07:00:30.828Z,22.02
2022-12-03T07:01:02.726Z,22.27
2022-12-03T07:01:34.646Z,21.42
2022-12-03T07:02:06.895Z,20.77
2022-12-03T07:02:39.056Z,22.42
2022-12-03T07:03:11.190Z,20.60
2022-12-03T07:03:43.119Z,21.75
2022-12-03T07:04:15.164Z,22.70
2022-12-03T07:04:47.117Z,22.80
2022-12-03T07:05:19.792Z,21.70
2022-12-03T07:05:52.178Z,21.98
2022-12-03T07:06:24.068Z,21.80
2022-12-03T07:06:56.359Z,20.62
2022-12-03T07:07:28.375Z,22.15
2022-12-03T07:08:00.826Z,19.80
2022-12-03T07:08:33.208Z,21.48
2022-12-03T07:09:05.133Z,22.40
2022-12-03T07:09:37.020Z,20.35
2022-12-03T07:10:09.365Z,21.27
2022-12-03T07:10:41.551Z,21.70
2022-12-03T07:11:32.271Z,20.45
2022-12-03T07:12:04.196Z,21.27
2022-12-03T07:12:36.219Z,20.92
2022-12-03T07:13:08.283Z,21.33
2022-12-03T07:13:40.162Z,21.77
2022-12-03T07:14:12.200Z,20.08